createdAt,value
2018-09-10T00:02:12.764Z,99668.45
2018-09-10T00:04:47.570Z,99666.60
2018-09-10T00:07:16.680Z,99669.95
2018-09-10T00:09:45.625Z,99667.41
2018-09-10T00:12:21.692Z,99665.75
2018-09-10T00:14:50.513Z,99656.66
2018-09-10T00:17:19.530Z,99665.16
2018-09-10T00:19:48.893Z,99667.22
2018-09-10T00:22:17.841Z,99660.63
2018-09-10T00:24:52.448Z,99657.23
2018-09-10T00:27:24.885Z,99661.88
2018-09-10T00:29:54.524Z,99662.72
2018-09-10T00:32:25.511Z,99667.41
2018-09-10T00:34:55.314Z,99677.27
2018-09-10T00:37:24.176Z,99674.57
2018-09-10T00:39:53.231Z,99671.03
2018-09-10T00:42:22.834Z,99671.26
2018-09-10T00:44:51.989Z,99669.76
2018-09-10T00:47:20.844Z,99669.26
2018-09-10T00:49:49.921Z,99664.91
2018-09-10T00:52:18.814Z,99665.06
2018-09-10T00:54:47.661Z,99665.60
2018-09-10T00:57:16.988Z,99663.25
2018-09-10T00:59:45.881Z,99664.25
2018-09-10T01:02:20.716Z,99673.98
2018-09-10T01:04:54.226Z,99671.26
2018-09-10T01:07:23.743Z,99671.03
2018-09-10T01:09:52.774Z,99671.03
2018-09-10T01:12:21.869Z,99658.20
2018-09-10T01:14:52.435Z,99664.59
2018-09-10T01:17:26.841Z,99663.52
2018-09-10T01:19:56.433Z,99665.53
2018-09-10T01:22:29.055Z,99671.48
2018-09-10T01:25:01.881Z,99670.41
2018-09-10T01:27:30.938Z,99663.00
2018-09-10T01:29:59.835Z,99670.72
2018-09-10T01:32:29.280Z,99669.41
2018-09-10T01:35:04.307Z,99669.22
2018-09-10T01:37:34.657Z,99668.11
2018-09-10T01:40:07.135Z,99677.12
2018-09-10T01:42:36.574Z,99673.72
2018-09-10T01:45:16.432Z,99670.41
2018-09-10T01:47:52.897Z,99670.56
2018-09-10T01:50:25.376Z,99665.95
2018-09-10T01:52:55.005Z,99663.61
2018-09-10T01:55:30.093Z,99664.61
2018-09-10T01:57:59.255Z,99670.94
2018-09-10T02:00:32.096Z,99662.08
2018-09-10T02:03:05.408Z,99659.55
2018-09-10T02:05:34.401Z,99663.88
2018-09-10T02:08:03.339Z,99663.23
2018-09-10T02:10:32.815Z,99668.10
2018-09-10T02:13:02.750Z,99662.66
2018-09-10T02:15:32.349Z,99657.77
2018-09-10T02:18:01.311Z,99663.95
2018-09-10T02:20:30.283Z,99661.37
2018-09-10T02:22:59.837Z,99665.97
2018-09-10T02:25:29.829Z,99672.75
2018-09-10T02:28:00.131Z,99667.78
2018-09-10T02:30:29.260Z,99668.52
2018-09-10T02:32:58.420Z,99667.27
2018-09-10T02:35:28.911Z,99669.52
2018-09-10T02:37:58.023Z,99668.63
2018-09-10T02:40:26.968Z,99659.64
2018-09-10T02:42:56.320Z,99668.98
2018-09-10T02:45:25.276Z,99670.12
2018-09-10T02:47:54.551Z,99677.97
2018-09-10T02:50:29.050Z,99674.35
2018-09-10T02:52:58.133Z,99672.61
2018-09-10T02:55:27.072Z,99683.59
2018-09-10T02:57:56.026Z,99678.03
2018-09-10T03:00:25.564Z,99680.36
2018-09-10T03:02:55.184Z,99677.53
2018-09-10T03:05:24.483Z,99683.40
2018-09-10T03:08:04.437Z,99684.59
2018-09-10T03:10:37.004Z,99688.97
2018-09-10T03:13:12.091Z,99696.41
2018-09-10T03:15:58.972Z,99694.78
2018-09-10T03:18:40.482Z,99694.72
2018-09-10T03:21:09.731Z,99703.33
2018-09-10T03:23:38.800Z,99708.20
2018-09-10T03:26:07.950Z,99708.34
2018-09-10T03:28:37.521Z,99707.64
2018-09-10T03:31:06.495Z,99703.73
2018-09-10T03:33:35.715Z,99720.08
2018-09-10T03:36:05.940Z,99718.38
2018-09-10T03:38:34.903Z,99718.14
2018-09-10T03:41:03.926Z,99710.73
2018-09-10T03:43:32.872Z,99719.63
2018-09-10T03:46:01.785Z,99722.11
2018-09-10T03:48:31.744Z,99721.66
2018-09-10T03:51:02.018Z,99726.83
2018-09-10T03:53:38.990Z,99730.44
2018-09-10T03:56:08.820Z,99731.92
2018-09-10T03:58:37.720Z,99733.47
2018-09-10T04:01:06.914Z,99736.05
2018-09-10T04:03:35.926Z,99743.50
2018-09-10T04:06:17.432Z,99746.53
2018-09-10T04:08:46.765Z,99746.74
2018-09-10T04:11:16.761Z,99750.27
2018-09-10T04:13:45.686Z,99755.35
2018-09-10T04:16:21.263Z,99761.57
2018-09-10T04:18:50.397Z,99760.33
2018-09-10T04:21:19.681Z,99773.95
2018-09-10T04:23:49.293Z,99772.17
2018-09-10T04:26:18.317Z,99764.86
2018-09-10T04:28:47.460Z,99770.58
2018-09-10T04:31:16.793Z,99766.97
2018-09-10T04:33:46.026Z,99769.51
2018-09-10T04:36:15.659Z,99774.73
2018-09-10T04:38:45.889Z,99773.20
2018-09-10T04:41:22.474Z,99777.67
2018-09-10T04:43:52.091Z,99777.23
2018-09-10T04:46:21.017Z,99768.98
2018-09-10T04:48:49.852Z,99771.08
2018-09-10T04:51:19.324Z,99768.27
2018-09-10T04:53:48.324Z,99771.80
2018-09-10T04:56:17.421Z,99769.80
2018-09-10T04:58:46.469Z,99780.47
2018-09-10T05:01:15.920Z,99775.34
2018-09-10T05:03:45.048Z,99775.07
2018-09-10T05:06:19.927Z,99779.92
2018-09-10T05:08:49.188Z,99782.24
2018-09-10T05:11:18.326Z,99776.46
2018-09-10T05:13:47.590Z,99786.30
2018-09-10T05:16:16.745Z,99780.27
2018-09-10T05:18:45.903Z,99787.47
2018-09-10T05:21:14.865Z,99786.89
2018-09-10T05:23:43.948Z,99788.52
2018-09-10T05:26:13.413Z,99783.37
2018-09-10T05:28:42.314Z,99784.78
2018-09-10T05:31:11.252Z,99787.67
2018-09-10T05:33:40.313Z,99791.98
2018-09-10T05:36:09.067Z,99791.86
2018-09-10T05:38:38.445Z,99790.70
2018-09-10T05:41:07.650Z,99792.97
2018-09-10T05:43:36.750Z,99794.01
2018-09-10T05:46:05.862Z,99796.55
2018-09-10T05:48:34.984Z,99792.86
2018-09-10T05:51:21.399Z,99790.23
2018-09-10T05:54:08.413Z,99794.20
2018-09-10T05:56:38.419Z,99788.78
2018-09-10T05:59:07.535Z,99780.39
2018-09-10T06:01:36.992Z,99783.69
2018-09-10T06:04:06.573Z,99781.25
2018-09-10T06:06:42.727Z,99781.63
2018-09-10T06:09:17.088Z,99785.02
2018-09-10T06:11:46.444Z,99780.95
2018-09-10T06:14:15.394Z,99792.19
2018-09-10T06:16:44.765Z,99789.63
2018-09-10T06:19:14.365Z,99794.95
2018-09-10T06:21:43.225Z,99789.09
2018-09-10T06:24:12.201Z,99801.73
2018-09-10T06:26:41.611Z,99800.67
2018-09-10T06:29:10.562Z,99792.24
2018-09-10T06:31:39.703Z,99800.83
2018-09-10T06:34:09.172Z,99800.38
2018-09-10T06:36:38.172Z,99799.74
2018-09-10T06:39:10.564Z,99792.32
2018-09-10T06:41:46.642Z,99805.48
2018-09-10T06:44:21.245Z,99801.45
2018-09-10T06:46:56.436Z,99802.98
2018-09-10T06:49:25.491Z,99809.44
2018-09-10T07:03:36.184Z,99815.28
2018-09-10T07:06:20.069Z,99821.05
2018-09-10T07:08:49.089Z,99812.11
2018-09-10T07:11:18.182Z,99813.86
2018-09-10T07:13:48.372Z,99813.12
2018-09-10T07:16:20.702Z,99812.42
2018-09-10T07:18:54.728Z,99809.27
2018-09-10T07:21:23.920Z,99810.42
2018-09-10T07:23:54.480Z,99810.78
2018-09-10T07:26:29.030Z,99805.98
2018-09-10T07:28:57.959Z,99811.89
2018-09-10T07:31:27.909Z,99815.67
2018-09-10T07:33:56.694Z,99811.71
2018-09-10T07:36:26.055Z,99811.91
2018-09-10T07:38:55.208Z,99816.68
2018-09-10T07:41:24.246Z,99812.86
2018-09-10T07:43:53.299Z,99810.19
2018-09-10T07:46:23.037Z,99809.38
2018-09-10T07:48:52.089Z,99802.78
2018-09-10T07:51:40.866Z,99806.92
2018-09-10T07:54:09.772Z,99801.09
2018-09-10T07:56:38.728Z,99804.49
2018-09-10T07:59:08.759Z,99805.84
2018-09-10T08:01:38.865Z,99803.65
2018-09-10T08:04:07.890Z,99805.48
2018-09-10T08:06:36.975Z,99798.89
2018-09-10T08:09:08.124Z,99798.08
2018-09-10T08:11:37.704Z,99793.20
2018-09-10T08:14:06.846Z,99790.20
2018-09-10T08:16:35.922Z,99782.59
2018-09-10T08:19:11.868Z,99789.39
2018-09-10T08:21:41.005Z,99780.78
2018-09-10T08:24:10.119Z,99781.29
2018-09-10T08:26:39.644Z,99773.50
2018-09-10T08:29:11.866Z,99778.89
2018-09-10T08:37:44.605Z,99760.31
2018-09-10T08:40:17.257Z,99757.61
2018-09-10T08:42:47.722Z,99758.94
2018-09-10T08:45:18.878Z,99751.47
2018-09-10T08:47:49.090Z,99752.16
2018-09-10T08:50:18.788Z,99754.53
2018-09-10T08:52:50.667Z,99751.85
2018-09-10T08:55:21.645Z,99746.12
2018-09-10T08:57:58.055Z,99748.99
2018-09-10T09:00:27.591Z,99745.93
2018-09-10T09:02:59.357Z,99748.99
2018-09-10T09:05:28.994Z,99748.13
2018-09-10T09:07:57.921Z,99744.94
2018-09-10T09:10:26.949Z,99734.62
2018-09-10T09:12:56.271Z,99737.29
2018-09-10T09:15:25.337Z,99732.86
2018-09-10T09:17:54.322Z,99727.92
2018-09-10T09:20:24.304Z,99726.95
2018-09-10T09:22:53.362Z,99726.67
2018-09-10T09:25:22.451Z,99730.46
2018-09-10T09:27:52.453Z,99725.77
2018-09-10T09:30:27.969Z,99723.66
2018-09-10T09:32:56.863Z,99730.04
2018-09-10T09:35:30.777Z,99729.78
2018-09-10T09:40:05.864Z,99717.97
2018-09-10T09:42:40.005Z,99725.03
2018-09-10T09:46:17.087Z,99721.34
2018-09-10T09:48:46.107Z,99719.70
2018-09-10T09:51:15.033Z,99722.02
2018-09-10T09:53:44.112Z,99715.70
2018-09-10T09:56:13.181Z,99719.82
2018-09-10T09:58:42.144Z,99713.58
2018-09-10T10:01:16.070Z,99714.48
2018-09-10T10:03:49.872Z,99712.41
2018-09-10T10:06:18.847Z,99715.95
2018-09-10T10:08:47.868Z,99712.45
2018-09-10T10:11:16.979Z,99721.19
2018-09-10T10:13:45.989Z,99708.72
2018-09-10T10:16:15.196Z,99718.30
2018-09-10T10:18:44.157Z,99702.58
2018-09-10T10:21:13.237Z,99713.52
2018-09-10T10:23:42.233Z,99708.16
2018-09-10T10:26:11.306Z,99706.65
2018-09-10T10:28:40.716Z,99712.53
2018-09-10T10:31:09.701Z,99710.23
2018-09-10T10:33:38.698Z,99707.77
2018-09-10T10:36:08.281Z,99705.52
2018-09-10T10:38:37.084Z,99706.60
2018-09-10T10:41:05.939Z,99700.88
2018-09-10T10:43:35.269Z,99703.09
2018-09-10T10:46:04.177Z,99706.77
2018-09-10T10:48:33.217Z,99710.55
2018-09-10T10:51:02.594Z,99711.17
2018-09-10T10:53:31.599Z,99713.44
2018-09-10T10:56:00.605Z,99696.09
2018-09-10T10:58:29.800Z,99703.84
2018-09-10T11:00:58.823Z,99703.53
2018-09-10T11:03:27.828Z,99695.58
2018-09-10T11:05:56.868Z,99694.55
2018-09-10T11:08:25.833Z,99690.63
2018-09-10T11:10:54.808Z,99699.31
2018-09-10T11:13:24.168Z,99692.41
2018-09-10T11:15:53.061Z,99679.39
2018-09-10T11:18:21.969Z,99673.55
2018-09-10T11:20:50.924Z,99685.81
2018-09-10T11:23:19.711Z,99681.74
2018-09-10T11:25:48.650Z,99676.89
2018-09-10T11:28:17.561Z,99670.55
2018-09-10T11:30:46.559Z,99677.22
2018-09-10T11:33:15.572Z,99668.91
2018-09-10T11:35:44.560Z,99676.16
2018-09-10T11:38:13.625Z,99671.16
2018-09-10T11:40:42.656Z,99671.80
2018-09-10T11:43:11.922Z,99662.65
2018-09-10T11:45:40.676Z,99679.20
2018-09-10T11:48:09.620Z,99678.42
2018-09-10T11:50:38.554Z,99678.38
2018-09-10T11:53:07.439Z,99670.17
2018-09-10T11:55:36.448Z,99658.48
2018-09-10T11:58:05.551Z,99659.97
2018-09-10T12:00:34.624Z,99659.91
2018-09-10T12:03:03.692Z,99655.96
2018-09-10T12:05:32.705Z,99650.01
2018-09-10T12:08:01.613Z,99653.65
2018-09-10T12:10:30.533Z,99650.25
2018-09-10T12:12:59.631Z,99652.33
2018-09-10T12:15:28.747Z,99649.77
2018-09-10T12:17:57.838Z,99636.75
2018-09-10T12:20:27.147Z,99636.55
2018-09-10T12:22:56.223Z,99633.41
2018-09-10T12:25:25.135Z,99638.61
2018-09-10T12:27:54.441Z,99634.05
2018-09-10T12:30:23.471Z,99635.31
2018-09-10T12:32:53.336Z,99624.02
2018-09-10T12:35:22.259Z,99615.53
2018-09-10T12:37:51.099Z,99617.05
2018-09-10T12:40:19.996Z,99624.08
2018-09-10T12:42:49.057Z,99621.65
2018-09-10T12:45:17.934Z,99626.80
2018-09-10T12:47:46.885Z,99613.24
2018-09-10T12:50:16.164Z,99614.33
2018-09-10T12:52:45.119Z,99614.23
2018-09-10T12:55:14.208Z,99610.53
2018-09-10T12:57:43.283Z,99607.75
2018-09-10T13:00:12.346Z,99604.81
2018-09-10T13:02:41.351Z,99602.06
2018-09-10T13:05:10.320Z,99606.74
2018-09-10T13:07:39.358Z,99603.02
2018-09-10T13:10:08.289Z,99594.08
2018-09-10T13:12:37.235Z,99609.94
2018-09-10T13:15:06.394Z,99603.06
2018-09-10T13:17:35.448Z,99603.22
2018-09-10T13:20:04.751Z,99600.66
2018-09-10T13:22:33.808Z,99600.05
2018-09-10T13:25:02.620Z,99599.88
2018-09-10T13:27:31.611Z,99599.09
2018-09-10T13:30:00.742Z,99595.17
2018-09-10T13:32:29.808Z,99600.71
2018-09-10T13:34:59.142Z,99594.48
2018-09-10T13:37:28.127Z,99599.41
2018-09-10T13:39:57.046Z,99597.84
2018-09-10T13:42:26.202Z,99587.26
2018-09-10T13:44:55.220Z,99597.94
2018-09-10T13:47:24.136Z,99595.64
2018-09-10T13:49:53.612Z,99598.25
2018-09-10T13:52:22.538Z,99595.06
2018-09-10T13:54:51.589Z,99596.81
2018-09-10T13:57:20.776Z,99593.45
2018-09-10T13:59:49.866Z,99599.72
2018-09-10T14:02:18.899Z,99605.50
2018-09-10T14:04:48.123Z,99603.27
2018-09-10T14:07:17.090Z,99595.02
2018-09-10T14:09:46.356Z,99595.46
2018-09-10T14:12:15.476Z,99607.62
2018-09-10T14:14:44.532Z,99604.77
2018-09-10T14:17:13.758Z,99600.50
2018-09-10T14:19:42.781Z,99601.70
2018-09-10T14:22:11.729Z,99596.81
2018-09-10T14:24:40.635Z,99612.81
2018-09-10T14:27:09.637Z,99617.86
2018-09-10T14:29:38.672Z,99610.80
2018-09-10T14:32:07.582Z,99614.68
2018-09-10T14:34:36.510Z,99605.05
2018-09-10T14:37:05.711Z,99604.44
2018-09-10T14:39:34.544Z,99614.08
2018-09-10T14:42:03.986Z,99609.32
2018-09-10T14:44:33.017Z,99614.56
2018-09-10T14:47:01.965Z,99612.68
2018-09-10T14:49:31.470Z,99614.04
2018-09-10T14:52:00.515Z,99622.08
2018-09-10T14:54:29.510Z,99604.65
2018-09-10T14:56:58.849Z,99600.45
2018-09-10T14:59:27.792Z,99603.81
2018-09-10T15:01:56.704Z,99611.33
2018-09-10T15:04:26.145Z,99613.52
2018-09-10T15:06:55.196Z,99612.20
2018-09-10T15:09:24.178Z,99615.13
2018-09-10T15:11:53.388Z,99612.20
2018-09-10T15:14:22.379Z,99617.00
2018-09-10T15:16:51.489Z,99609.44
2018-09-10T15:19:20.468Z,99609.31
2018-09-10T15:21:49.398Z,99614.42
2018-09-10T15:24:18.339Z,99609.23
2018-09-10T15:26:47.845Z,99614.98
2018-09-10T15:29:16.930Z,99613.55
2018-09-10T15:31:46.850Z,99632.59
2018-09-10T15:34:16.069Z,99612.42
2018-09-10T15:36:45.150Z,99634.22
2018-09-10T15:39:14.100Z,99625.46
2018-09-10T15:41:43.192Z,99635.67
2018-09-10T15:44:12.019Z,99621.45
2018-09-10T15:46:41.051Z,99624.01
2018-09-10T15:49:10.160Z,99628.47
2018-09-10T15:51:39.199Z,99631.16
2018-09-10T15:54:08.186Z,99632.38
2018-09-10T15:56:37.298Z,99626.98
2018-09-10T15:59:06.284Z,99644.17
2018-09-10T16:01:35.520Z,99632.02
2018-09-10T16:04:04.489Z,99635.09
2018-09-10T16:06:33.597Z,99628.75
2018-09-10T16:09:02.710Z,99633.52
2018-09-10T16:11:31.868Z,99630.89
2018-09-10T16:14:00.847Z,99636.56
2018-09-10T16:16:29.930Z,99631.03
2018-09-10T16:18:59.300Z,99638.78
2018-09-10T16:21:28.609Z,99636.96
2018-09-10T16:23:57.709Z,99632.27
2018-09-10T16:26:26.982Z,99636.96
2018-09-10T16:28:56.048Z,99630.45
2018-09-10T16:31:24.966Z,99635.05
2018-09-10T16:33:54.081Z,99634.64
2018-09-10T16:36:23.140Z,99634.02
2018-09-10T16:38:52.124Z,99637.44
2018-09-10T16:41:21.255Z,99637.31
2018-09-10T16:43:50.494Z,99646.64
2018-09-10T16:46:19.412Z,99644.16
2018-09-10T16:48:48.555Z,99643.33
2018-09-10T16:51:17.623Z,99638.31
2018-09-10T16:53:46.773Z,99652.23
2018-09-10T16:56:16.090Z,99647.88
2018-09-10T16:58:45.162Z,99655.81
2018-09-10T17:01:14.163Z,99665.02
2018-09-10T17:03:43.530Z,99663.20
2018-09-10T17:06:12.570Z,99666.96
2018-09-10T17:08:41.565Z,99662.59
2018-09-10T17:11:10.802Z,99676.45
2018-09-10T17:13:39.920Z,99678.00
2018-09-10T17:16:08.918Z,99683.56
2018-09-10T17:18:37.852Z,99687.31
2018-09-10T17:21:06.886Z,99687.31
2018-09-10T17:23:35.891Z,99697.11
2018-09-10T17:26:05.137Z,99696.13
2018-09-10T17:28:34.155Z,99698.64
2018-09-10T17:31:03.105Z,99702.84
2018-09-10T17:33:32.104Z,99701.65
2018-09-10T17:36:01.074Z,99705.84
2018-09-10T17:38:30.118Z,99712.06
2018-09-10T17:40:59.072Z,99715.28
2018-09-10T17:43:28.072Z,99713.59
2018-09-10T17:45:57.004Z,99723.38
2018-09-10T17:48:25.824Z,99721.49
2018-09-10T17:50:54.827Z,99729.90
2018-09-10T17:53:23.963Z,99731.68
2018-09-10T17:55:53.039Z,99727.21
2018-09-10T17:58:22.084Z,99737.78
2018-09-10T18:00:51.592Z,99737.61
2018-09-10T18:03:20.449Z,99745.86
2018-09-10T18:05:49.219Z,99747.67
2018-09-10T18:08:18.250Z,99752.71
2018-09-10T18:10:47.263Z,99759.06
2018-09-10T18:13:16.218Z,99750.64
2018-09-10T18:15:45.073Z,99760.92
2018-09-10T18:18:14.134Z,99761.09
2018-09-10T18:20:43.107Z,99764.17
2018-09-10T18:23:11.904Z,99762.66
2018-09-10T18:25:41.216Z,99762.83
2018-09-10T18:28:10.193Z,99769.86
2018-09-10T18:30:39.132Z,99774.23
2018-09-10T18:33:08.654Z,99770.58
2018-09-10T18:35:37.584Z,99775.66
2018-09-10T18:38:06.530Z,99772.83
2018-09-10T18:40:35.430Z,99776.89
2018-09-10T18:43:04.204Z,99777.56
2018-09-10T18:45:33.264Z,99781.11
2018-09-10T18:48:02.462Z,99786.96
2018-09-10T18:50:31.321Z,99790.70
2018-09-10T18:53:00.227Z,99793.91
2018-09-10T18:55:29.250Z,99785.61
2018-09-10T18:57:58.266Z,99795.72
2018-09-10T19:00:30.659Z,99792.34
2018-09-10T19:03:00.694Z,99792.00
2018-09-10T19:05:31.196Z,99797.90
2018-09-10T19:08:02.022Z,99805.98
2018-09-10T19:10:31.301Z,99797.72
2018-09-10T19:13:02.124Z,99804.22
2018-09-10T19:15:34.365Z,99803.06
2018-09-10T19:18:04.351Z,99801.21
2018-09-10T19:20:33.361Z,99799.36
2018-09-10T19:23:02.238Z,99796.48
2018-09-10T19:25:31.241Z,99803.23
2018-09-10T19:28:00.288Z,99807.27
2018-09-10T19:30:29.434Z,99806.09
2018-09-10T19:32:58.892Z,99806.07
2018-09-10T19:35:27.922Z,99810.62
2018-09-10T19:37:59.218Z,99808.55
2018-09-10T19:40:28.131Z,99815.51
2018-09-10T19:42:56.946Z,99813.16
2018-09-10T19:45:26.158Z,99816.52
2018-09-10T19:47:55.054Z,99814.34
2018-09-10T19:50:23.945Z,99815.67
2018-09-10T19:52:52.999Z,99815.95
2018-09-10T19:55:21.976Z,99819.98
2018-09-10T19:57:50.980Z,99817.95
2018-09-10T20:00:20.248Z,99817.11
2018-09-10T20:02:49.056Z,99821.78
2018-09-10T20:05:18.047Z,99819.53
2018-09-10T20:07:47.225Z,99823.34
2018-09-10T20:10:16.296Z,99825.98
2018-09-10T20:12:45.291Z,99822.73
2018-09-10T20:15:14.384Z,99827.41
2018-09-10T20:17:43.241Z,99826.51
2018-09-10T20:20:12.156Z,99824.29
2018-09-10T20:22:41.381Z,99822.41
2018-09-10T20:25:10.386Z,99828.39
2018-09-10T20:27:39.366Z,99828.87
2018-09-10T20:30:08.512Z,99831.50
2018-09-10T20:32:37.460Z,99831.56
2018-09-10T20:35:06.494Z,99832.87
2018-09-10T20:37:35.476Z,99836.28
2018-09-10T20:40:04.796Z,99835.39
2018-09-10T20:42:33.933Z,99836.64
2018-09-10T20:45:03.028Z,99836.95
2018-09-10T20:47:32.036Z,99834.45
2018-09-10T20:50:01.040Z,99834.75
2018-09-10T20:52:30.181Z,99835.38
2018-09-10T20:54:59.220Z,99846.10
2018-09-10T20:57:28.223Z,99844.06
2018-09-10T20:59:57.557Z,99850.72
2018-09-10T21:02:26.561Z,99847.19
2018-09-10T21:04:56.424Z,99850.10
2018-09-10T21:07:27.457Z,99845.49
2018-09-10T21:09:57.670Z,99850.38
2018-09-10T21:12:27.937Z,99849.10
2018-09-10T21:14:57.988Z,99853.41
2018-09-10T21:17:29.409Z,99852.22
2018-09-10T21:19:59.740Z,99848.41
2018-09-10T21:22:29.926Z,99851.22
2018-09-10T21:25:00.165Z,99851.83
2018-09-10T21:27:30.334Z,99858.26
2018-09-10T21:30:00.957Z,99855.02
2018-09-10T21:32:33.080Z,99860.45
2018-09-10T21:35:03.398Z,99859.33
2018-09-10T21:37:34.037Z,99861.98
2018-09-10T21:40:04.461Z,99862.63
2018-09-10T21:42:36.932Z,99861.24
2018-09-10T21:45:07.457Z,99857.33
2018-09-10T21:47:38.185Z,99855.13
2018-09-10T21:50:08.594Z,99855.44
2018-09-10T21:52:38.887Z,99855.73
2018-09-10T21:55:09.166Z,99849.90
2018-09-10T21:57:39.161Z,99850.01
2018-09-10T22:00:09.671Z,99850.27
2018-09-10T22:02:39.773Z,99851.58
2018-09-10T22:05:10.545Z,99845.22
2018-09-10T22:07:41.781Z,99847.27
2018-09-10T22:10:12.928Z,99847.59
2018-09-10T22:12:44.576Z,99840.52
2018-09-10T22:15:15.587Z,99843.85
2018-09-10T22:17:46.385Z,99847.69
2018-09-10T22:20:17.021Z,99849.53
2018-09-10T22:22:47.403Z,99855.41
2018-09-10T22:25:18.139Z,99851.58
2018-09-10T22:27:48.502Z,99850.77
2018-09-10T22:30:18.175Z,99851.58
2018-09-10T22:32:49.653Z,99853.88
2018-09-10T22:35:19.477Z,99852.45
2018-09-10T22:37:50.725Z,99847.15
2018-09-10T22:40:20.993Z,99853.27
2018-09-10T22:42:53.585Z,99852.58
2018-09-10T22:45:24.218Z,99853.47
2018-09-10T22:47:53.510Z,99853.57
2018-09-10T22:50:22.805Z,99857.83
2018-09-10T22:52:51.788Z,99850.38
2018-09-10T22:55:20.766Z,99851.09
2018-09-10T22:57:49.653Z,99854.06
2018-09-10T23:00:18.705Z,99852.43
2018-09-10T23:02:48.099Z,99855.07
2018-09-10T23:05:17.119Z,99849.61
2018-09-10T23:07:46.116Z,99841.69
2018-09-10T23:10:16.338Z,99828.84
2018-09-10T23:12:45.327Z,99836.82
2018-09-10T23:15:14.176Z,99831.05
2018-09-10T23:17:43.317Z,99830.85
2018-09-10T23:20:12.207Z,99827.73
2018-09-10T23:22:41.201Z,99831.76
2018-09-10T23:25:10.436Z,99828.72
2018-09-10T23:27:39.370Z,99830.06
2018-09-10T23:30:09.636Z,99831.20
2018-09-10T23:32:38.756Z,99826.53
2018-09-10T23:35:07.859Z,99831.20
2018-09-10T23:37:36.789Z,99828.11
2018-09-10T23:40:06.135Z,99823.70
2018-09-10T23:42:35.085Z,99830.20
2018-09-10T23:45:03.978Z,99825.83
2018-09-10T23:47:35.503Z,99832.39
2018-09-10T23:50:05.821Z,99829.80
2018-09-10T23:52:34.725Z,99831.16
2018-09-10T23:55:03.805Z,99830.64
2018-09-10T23:57:32.717Z,99824.09
